Time;durP1;ratioP1;P1;durP2;ratioP2;P2;SDS_P1;SDS_P2;PMS_P1;PMS_P2;Temp;Humidity;BMP_temperature;BMP_pressure;BME280_temperature;BME280_humidity;BME280_pressure;Samples;Min_cycle;Max_cycle;Signal;HPM_P1;HPM_P2
2021/09/02 00:01:56;;;;;;;7.20;5.83;;;14.70;99.90;;;;;;5015274;28;20288;-50
2021/09/02 00:04:25;;;;;;;5.60;4.80;;;14.70;99.90;;;;;;5013852;28;20403;-48
2021/09/02 00:06:50;;;;;;;5.63;5.13;;;14.60;99.90;;;;;;5014142;28;20402;-50
2021/09/02 00:09:16;;;;;;;7.73;6.20;;;14.60;99.90;;;;;;5014620;28;20457;-50
2021/09/02 00:11:42;;;;;;;5.80;5.30;;;14.60;99.90;;;;;;5014720;28;20172;-52
2021/09/02 00:14:07;;;;;;;9.00;5.30;;;14.60;99.90;;;;;;5013916;28;20238;-56
2021/09/02 00:16:33;;;;;;;8.10;5.50;;;14.60;99.90;;;;;;5014587;28;20403;-56
2021/09/02 00:18:59;;;;;;;7.03;5.17;;;14.60;99.90;;;;;;5014102;28;20206;-57
2021/09/02 00:21:24;;;;;;;6.50;5.20;;;14.60;99.90;;;;;;5014065;28;20171;-57
2021/09/02 00:23:50;;;;;;;6.43;5.53;;;14.60;99.90;;;;;;5014151;28;20698;-50
2021/09/02 00:26:15;;;;;;;6.63;5.93;;;14.50;99.90;;;;;;5014154;28;20168;-51
2021/09/02 00:28:41;;;;;;;6.43;5.80;;;14.50;99.90;;;;;;5014051;28;20188;-53
2021/09/02 00:31:07;;;;;;;6.20;5.23;;;14.40;99.90;;;;;;5003043;28;20688;-49
2021/09/02 00:33:32;;;;;;;7.50;5.53;;;14.40;99.90;;;;;;4994682;28;20172;-49
2021/09/02 00:35:58;;;;;;;6.60;6.00;;;14.40;99.90;;;;;;4994378;28;20695;-57
2021/09/02 00:38:24;;;;;;;6.80;6.10;;;14.40;99.90;;;;;;4994257;28;20564;-58
2021/09/02 00:40:49;;;;;;;6.57;5.10;;;14.30;99.90;;;;;;4994602;28;20254;-57
2021/09/02 00:43:15;;;;;;;7.03;6.33;;;14.30;99.90;;;;;;4995542;28;20436;-57
2021/09/02 00:45:41;;;;;;;5.83;5.23;;;14.30;99.90;;;;;;5013829;28;20172;-57
2021/09/02 00:48:06;;;;;;;6.87;5.80;;;14.30;99.90;;;;;;5013564;28;20204;-58
2021/09/02 00:50:33;;;;;;;6.83;6.20;;;14.20;99.90;;;;;;5013596;28;20168;-58
2021/09/02 00:53:01;;;;;;;8.07;5.77;;;14.20;99.90;;;;;;5013736;28;20617;-57
2021/09/02 00:55:27;;;;;;;6.10;5.53;;;14.20;99.90;;;;;;5013730;28;20412;-51
2021/09/02 00:57:52;;;;;;;5.97;5.40;;;14.30;99.90;;;;;;5013466;28;20462;-51
2021/09/02 01:00:18;;;;;;;8.70;6.00;;;14.20;99.90;;;;;;4995812;28;20491;-51
2021/09/02 01:02:46;;;;;;;6.13;5.53;;;14.20;99.90;;;;;;5013751;28;20713;-49
2021/09/02 01:05:14;;;;;;;6.90;6.20;;;14.20;99.90;;;;;;5013443;28;20422;-53
2021/09/02 01:07:40;;;;;;;5.87;5.30;;;14.20;99.90;;;;;;5013684;28;20432;-49
2021/09/02 01:10:09;;;;;;;6.30;5.70;;;14.20;99.90;;;;;;4996288;28;20426;-50
2021/09/02 01:12:42;;;;;;;6.87;5.80;;;14.10;99.90;;;;;;5013561;28;20411;-50
2021/09/02 01:15:16;;;;;;;7.07;6.30;;;14.00;99.90;;;;;;5013263;28;20443;-57
2021/09/02 01:17:43;;;;;;;7.30;6.10;;;14.00;99.90;;;;;;5016603;28;20441;-57
2021/09/02 01:20:11;;;;;;;8.03;6.57;;;13.90;99.90;;;;;;5017495;28;20914;-57
2021/09/02 01:22:37;;;;;;;6.63;6.03;;;13.90;99.90;;;;;;5017267;28;20506;-58
2021/09/02 01:25:07;;;;;;;7.77;6.97;;;13.90;99.90;;;;;;5017487;28;20860;-53
2021/09/02 01:27:33;;;;;;;5.73;5.23;;;13.90;99.90;;;;;;5017263;28;20431;-49
2021/09/02 01:30:00;;;;;;;8.50;6.63;;;13.90;99.90;;;;;;5017034;28;20489;-50
2021/09/02 01:32:27;;;;;;;7.27;6.57;;;13.90;99.90;;;;;;5017521;28;20418;-51
2021/09/02 01:34:55;;;;;;;8.60;6.50;;;13.90;99.90;;;;;;5016408;28;20423;-57
2021/09/02 01:37:21;;;;;;;7.83;6.60;;;13.90;99.90;;;;;;5016849;28;20423;-56
2021/09/02 01:39:48;;;;;;;7.00;6.30;;;13.80;99.90;;;;;;5017618;28;20462;-56
2021/09/02 01:42:14;;;;;;;7.13;6.50;;;13.80;99.90;;;;;;5017411;28;20410;-56
2021/09/02 01:44:40;;;;;;;8.50;6.90;;;13.80;99.90;;;;;;5015782;28;20526;-55
2021/09/02 01:47:20;;;;;;;8.30;7.27;;;13.80;99.90;;;;;;5016791;28;20271;-56
2021/09/02 01:49:45;;;;;;;7.67;6.87;;;13.80;99.90;;;;;;5042894;22;20490;-60
2021/09/02 01:52:11;;;;;;;9.07;7.30;;;13.80;99.90;;;;;;5016482;28;20524;-59
2021/09/02 01:54:36;;;;;;;6.70;6.00;;;13.80;99.90;;;;;;5016461;28;20674;-61
2021/09/02 01:57:05;;;;;;;6.83;6.23;;;13.70;99.90;;;;;;5015701;28;20166;-60
2021/09/02 01:59:31;;;;;;;7.93;7.13;;;13.70;99.90;;;;;;5016383;28;20261;-59
2021/09/02 02:01:56;;;;;;;8.60;6.30;;;13.60;99.90;;;;;;5016970;28;20412;-60
2021/09/02 02:04:22;;;;;;;9.73;6.70;;;13.70;99.90;;;;;;5017053;28;20173;-60
2021/09/02 02:06:48;;;;;;;7.80;6.50;;;13.70;99.90;;;;;;5016318;28;20172;-60
2021/09/02 02:09:13;;;;;;;7.37;6.50;;;13.70;99.90;;;;;;5016337;28;20554;-59
2021/09/02 02:11:39;;;;;;;8.07;7.07;;;13.60;99.90;;;;;;5016290;28;20175;-60
2021/09/02 02:14:04;;;;;;;7.73;6.77;;;13.70;99.90;;;;;;5016276;28;20195;-60
2021/09/02 02:16:30;;;;;;;11.30;8.37;;;13.70;99.90;;;;;;5015875;28;20556;-60
2021/09/02 02:18:55;;;;;;;7.60;6.80;;;13.70;99.90;;;;;;5016274;28;20229;-60
2021/09/02 02:21:21;;;;;;;8.17;7.47;;;13.70;99.90;;;;;;5015992;28;20206;-60
2021/09/02 02:23:46;;;;;;;7.73;6.93;;;13.70;99.90;;;;;;5016119;28;20224;-59
2021/09/02 02:26:12;;;;;;;8.67;7.87;;;13.70;99.90;;;;;;5016875;28;20168;-59
2021/09/02 02:28:38;;;;;;;8.63;7.80;;;13.60;99.90;;;;;;5015012;28;20172;-60
2021/09/02 02:31:03;;;;;;;9.47;8.13;;;13.60;99.90;;;;;;5005797;28;20200;-60
2021/09/02 02:33:29;;;;;;;7.77;7.07;;;13.60;99.90;;;;;;4996342;28;20168;-60
2021/09/02 02:35:54;;;;;;;8.50;7.10;;;13.60;99.90;;;;;;4996570;28;20244;-59
2021/09/02 02:38:20;;;;;;;7.57;6.80;;;13.60;99.90;;;;;;4996171;28;20281;-60
2021/09/02 02:40:46;;;;;;;8.40;7.50;;;13.60;99.90;;;;;;4996076;28;20205;-60
2021/09/02 02:43:13;;;;;;;7.80;7.07;;;13.50;99.90;;;;;;4996112;28;20169;-58
2021/09/02 02:45:39;;;;;;;8.67;7.87;;;13.50;99.90;;;;;;5006619;28;20226;-60
2021/09/02 02:48:05;;;;;;;11.33;8.37;;;13.50;99.90;;;;;;5015885;28;20494;-60
2021/09/02 02:50:30;;;;;;;11.30;8.17;;;13.50;99.90;;;;;;5015586;28;20203;-61
2021/09/02 02:52:56;;;;;;;8.70;7.80;;;13.50;99.90;;;;;;5015354;28;20895;-60
2021/09/02 02:55:22;;;;;;;8.23;7.43;;;13.40;99.90;;;;;;5015724;28;20442;-60
2021/09/02 02:57:47;;;;;;;9.00;7.57;;;13.40;99.90;;;;;;5015424;28;20196;-60
2021/09/02 03:00:13;;;;;;;10.20;8.27;;;13.40;99.90;;;;;;5015147;28;20196;-60
2021/09/02 03:02:39;;;;;;;7.77;6.90;;;13.40;99.90;;;;;;5015599;28;20167;-60
2021/09/02 03:05:05;;;;;;;8.47;7.60;;;13.40;99.90;;;;;;5015405;28;20455;-60
2021/09/02 03:07:34;;;;;;;8.80;8.10;;;13.40;99.90;;;;;;5015362;28;20172;-61
2021/09/02 03:09:59;;;;;;;9.63;8.73;;;13.40;99.90;;;;;;5015205;28;20411;-61
2021/09/02 03:12:25;;;;;;;11.40;8.00;;;13.40;99.90;;;;;;5015782;28;20432;-59
2021/09/02 03:14:51;;;;;;;7.87;7.17;;;13.40;99.90;;;;;;5015050;28;20641;-60
2021/09/02 03:17:16;;;;;;;9.03;8.10;;;13.40;99.90;;;;;;5015133;28;20164;-60
2021/09/02 03:19:42;;;;;;;8.90;7.80;;;13.40;99.90;;;;;;5015200;28;20570;-60
2021/09/02 03:22:07;;;;;;;10.27;8.57;;;13.40;99.90;;;;;;5014895;28;20168;-60
2021/09/02 03:24:33;;;;;;;9.73;8.83;;;13.30;99.90;;;;;;5015390;28;20222;-60
2021/09/02 03:26:59;;;;;;;9.63;8.73;;;13.30;99.90;;;;;;5014958;28;20263;-60
2021/09/02 03:29:25;;;;;;;9.23;8.33;;;13.40;99.90;;;;;;4997736;28;20194;-60
2021/09/02 03:31:50;;;;;;;10.37;9.33;;;13.30;99.90;;;;;;5014645;28;20168;-60
2021/09/02 03:34:16;;;;;;;9.70;8.70;;;13.30;99.90;;;;;;5014830;28;20160;-60
2021/09/02 03:36:45;;;;;;;9.40;8.40;;;13.30;99.90;;;;;;5014477;28;20590;-60
2021/09/02 03:39:10;;;;;;;11.10;9.50;;;13.40;99.90;;;;;;5014976;28;20631;-60
2021/09/02 03:41:36;;;;;;;11.23;9.83;;;13.20;99.90;;;;;;5014849;28;20454;-60
2021/09/02 03:44:02;;;;;;;10.47;9.37;;;13.20;99.90;;;;;;4996997;28;20182;-60
2021/09/02 03:46:28;;;;;;;11.03;9.57;;;13.20;99.90;;;;;;5014490;28;20226;-60
2021/09/02 03:48:53;;;;;;;10.83;9.77;;;13.10;99.90;;;;;;5014516;28;20648;-60
2021/09/02 03:51:19;;;;;;;11.20;10.00;;;13.20;99.90;;;;;;5014250;28;20167;-60
2021/09/02 03:53:44;;;;;;;10.23;9.27;;;13.20;99.90;;;;;;5014656;28;20584;-59
2021/09/02 03:56:10;;;;;;;10.00;9.10;;;13.00;99.90;;;;;;5014921;28;20186;-60
2021/09/02 03:58:35;;;;;;;11.73;9.10;;;13.00;99.90;;;;;;5014475;28;20275;-60
2021/09/02 04:01:01;;;;;;;9.43;8.47;;;13.10;99.90;;;;;;5014111;28;20180;-60
2021/09/02 04:03:27;;;;;;;10.50;9.20;;;13.10;99.90;;;;;;5014389;28;20299;-59
2021/09/02 04:05:52;;;;;;;11.13;9.47;;;13.10;99.90;;;;;;5014281;28;20175;-60
2021/09/02 04:08:18;;;;;;;9.87;8.90;;;13.10;99.90;;;;;;5014415;28;20194;-60
2021/09/02 04:10:43;;;;;;;10.50;9.40;;;13.10;99.90;;;;;;5013956;28;20218;-60
2021/09/02 04:13:09;;;;;;;11.83;10.63;;;13.10;99.90;;;;;;5014070;28;20176;-60
2021/09/02 04:15:34;;;;;;;10.73;9.70;;;13.10;99.90;;;;;;5013851;28;20522;-60
2021/09/02 04:18:00;;;;;;;9.17;8.23;;;13.10;99.90;;;;;;5013932;28;20264;-60
2021/09/02 04:20:26;;;;;;;11.87;10.27;;;13.10;99.90;;;;;;5013872;28;20192;-59
2021/09/02 04:22:51;;;;;;;11.17;9.97;;;13.20;99.90;;;;;;5013727;28;20164;-60
2021/09/02 04:25:17;;;;;;;10.87;9.43;;;13.20;99.90;;;;;;5014165;28;20199;-61
2021/09/02 04:27:42;;;;;;;11.47;9.43;;;13.20;99.90;;;;;;5014142;28;20509;-60
2021/09/02 04:30:09;;;;;;;10.80;9.70;;;13.10;99.90;;;;;;5000679;28;20192;-60
2021/09/02 04:32:34;;;;;;;10.70;9.70;;;13.10;99.90;;;;;;4994283;28;20262;-59
2021/09/02 04:35:00;;;;;;;12.00;10.80;;;13.10;99.90;;;;;;4994865;28;20820;-61
2021/09/02 04:37:25;;;;;;;12.40;7.90;;;13.10;99.90;;;;;;4993815;28;20169;-61
2021/09/02 04:39:51;;;;;;;12.17;9.80;;;13.00;99.90;;;;;;4976422;28;20219;-59
2021/09/02 04:42:17;;;;;;;10.83;9.70;;;13.00;99.90;;;;;;4999097;28;20175;-61
2021/09/02 04:44:42;;;;;;;9.57;8.63;;;12.90;99.90;;;;;;5013440;28;20190;-61
2021/09/02 04:47:08;;;;;;;10.60;9.60;;;13.00;99.90;;;;;;5013131;28;20494;-61
2021/09/02 04:49:33;;;;;;;10.60;9.60;;;12.90;99.90;;;;;;5013338;28;20318;-60
2021/09/02 04:51:59;;;;;;;11.13;10.10;;;13.00;99.90;;;;;;5012832;28;20199;-60
2021/09/02 04:54:24;;;;;;;11.63;10.43;;;13.00;99.90;;;;;;5013659;28;20238;-60
2021/09/02 04:56:50;;;;;;;11.90;9.77;;;13.00;99.90;;;;;;5014032;28;20260;-60
2021/09/02 04:59:16;;;;;;;11.07;9.97;;;13.00;99.90;;;;;;5013517;28;20253;-59
2021/09/02 05:01:41;;;;;;;9.60;8.63;;;13.00;99.90;;;;;;5013105;28;20254;-60
2021/09/02 05:04:07;;;;;;;10.33;9.33;;;13.00;99.90;;;;;;5013628;28;20176;-60
2021/09/02 05:06:32;;;;;;;13.03;10.00;;;12.90;99.90;;;;;;5013370;28;20255;-60
2021/09/02 05:08:58;;;;;;;10.73;9.77;;;12.90;99.90;;;;;;5013760;28;20194;-57
2021/09/02 05:11:23;;;;;;;10.67;9.57;;;12.90;99.90;;;;;;5013305;28;20176;-60
2021/09/02 05:13:49;;;;;;;10.70;9.60;;;13.00;99.90;;;;;;5013252;28;20732;-59
2021/09/02 05:16:14;;;;;;;12.37;10.03;;;13.00;99.90;;;;;;5012881;28;20203;-60
2021/09/02 05:18:40;;;;;;;9.93;8.93;;;13.00;99.90;;;;;;5013397;28;20274;-59
2021/09/02 05:21:06;;;;;;;10.57;8.93;;;13.10;99.90;;;;;;5012990;28;20176;-59
2021/09/02 05:23:31;;;;;;;10.80;9.37;;;13.10;99.90;;;;;;5013431;28;20179;-60
2021/09/02 05:25:57;;;;;;;11.07;9.80;;;13.10;99.90;;;;;;5012945;28;20233;-60
2021/09/02 05:28:22;;;;;;;11.00;9.23;;;13.10;99.90;;;;;;5013376;28;20622;-58
2021/09/02 05:30:48;;;;;;;10.50;9.50;;;13.10;99.90;;;;;;4995282;28;20271;-60
2021/09/02 05:33:13;;;;;;;10.40;9.30;;;13.20;99.90;;;;;;5013508;28;20168;-60
2021/09/02 05:35:39;;;;;;;12.60;11.30;;;13.20;99.90;;;;;;5013269;28;20238;-60
2021/09/02 05:38:08;;;;;;;9.80;8.90;;;13.20;99.90;;;;;;5012659;28;20224;-58
2021/09/02 05:40:34;;;;;;;9.77;8.93;;;13.30;99.90;;;;;;5012886;28;20247;-59
2021/09/02 05:42:59;;;;;;;11.47;10.37;;;13.30;99.90;;;;;;5012803;28;20418;-60
2021/09/02 05:45:25;;;;;;;9.37;8.47;;;13.30;99.90;;;;;;5012795;28;20184;-59
2021/09/02 05:47:51;;;;;;;11.73;9.27;;;13.40;99.90;;;;;;5012996;28;20172;-58
2021/09/02 05:50:16;;;;;;;10.87;9.70;;;13.40;99.90;;;;;;5012714;28;20664;-61
2021/09/02 05:52:42;;;;;;;10.40;9.43;;;13.40;99.90;;;;;;5012846;28;20259;-61
2021/09/02 05:55:08;;;;;;;9.93;8.93;;;13.30;99.90;;;;;;5013113;28;20226;-61
2021/09/02 05:57:33;;;;;;;9.67;8.77;;;13.40;99.90;;;;;;5013024;28;20180;-59
2021/09/02 05:59:59;;;;;;;10.73;9.63;;;13.40;99.90;;;;;;5012695;28;20522;-59
2021/09/02 06:02:25;;;;;;;12.80;10.17;;;13.50;99.90;;;;;;5012452;28;20247;-58
2021/09/02 06:04:50;;;;;;;12.03;9.70;;;13.50;99.90;;;;;;5016035;28;20179;-60
2021/09/02 06:07:16;;;;;;;11.37;10.33;;;13.60;99.90;;;;;;5016152;28;20655;-57
2021/09/02 06:09:41;;;;;;;10.90;8.57;;;13.60;99.90;;;;;;5016296;28;20196;-59
2021/09/02 06:12:08;;;;;;;10.40;9.27;;;13.70;99.90;;;;;;5016450;28;20265;-60
2021/09/02 06:14:33;;;;;;;8.80;8.00;;;13.70;99.90;;;;;;5016014;28;20663;-60
2021/09/02 06:16:59;;;;;;;9.30;8.40;;;13.80;99.90;;;;;;5015740;28;20481;-59
2021/09/02 06:19:24;;;;;;;9.13;8.33;;;13.90;99.90;;;;;;5015913;28;20703;-61
2021/09/02 06:21:50;;;;;;;10.57;9.47;;;14.00;99.90;;;;;;5015822;28;20172;-61
2021/09/02 06:24:16;;;;;;;10.70;9.60;;;14.10;99.90;;;;;;5016000;28;20187;-61
2021/09/02 06:26:41;;;;;;;10.27;9.27;;;14.20;99.90;;;;;;5015877;28;20175;-58
2021/09/02 06:29:07;;;;;;;11.07;9.90;;;14.30;99.90;;;;;;5005055;28;20703;-58
2021/09/02 06:31:32;;;;;;;13.87;10.43;;;14.20;99.90;;;;;;4996441;28;20540;-60
2021/09/02 06:33:58;;;;;;;11.77;10.20;;;14.30;99.90;;;;;;4996196;28;20209;-60
2021/09/02 06:36:23;;;;;;;10.67;9.67;;;14.40;99.90;;;;;;4995961;28;20181;-60
2021/09/02 06:38:49;;;;;;;9.57;8.67;;;14.50;99.90;;;;;;4996055;28;20198;-59
2021/09/02 06:41:15;;;;;;;11.47;9.30;;;14.60;99.90;;;;;;4996308;28;20165;-59
2021/09/02 06:43:40;;;;;;;9.40;8.50;;;14.70;99.90;;;;;;4996352;28;20234;-60
2021/09/02 06:46:06;;;;;;;10.20;9.30;;;14.80;99.90;;;;;;5010612;28;20448;-61
2021/09/02 06:48:32;;;;;;;9.67;8.77;;;14.90;99.90;;;;;;4998074;28;20173;-60
2021/09/02 06:50:57;;;;;;;9.93;8.40;;;15.00;99.90;;;;;;5015432;28;20212;-60
2021/09/02 06:53:23;;;;;;;10.03;9.03;;;15.10;99.90;;;;;;5015316;28;20184;-60
2021/09/02 06:55:48;;;;;;;12.70;11.40;;;15.10;99.90;;;;;;5015494;28;20174;-60
2021/09/02 06:58:14;;;;;;;12.00;10.80;;;15.20;99.90;;;;;;5015854;28;20199;-60
2021/09/02 07:00:39;;;;;;;13.40;10.57;;;15.20;99.90;;;;;;5014856;28;20248;-60
2021/09/02 07:03:05;;;;;;;12.60;10.20;;;15.30;99.90;;;;;;5015837;28;20182;-61
2021/09/02 07:05:31;;;;;;;12.37;10.97;;;15.40;99.90;;;;;;5015973;28;20557;-61
2021/09/02 07:07:56;;;;;;;14.73;10.90;;;15.50;99.90;;;;;;5015099;28;20167;-60
2021/09/02 07:10:22;;;;;;;17.77;12.83;;;15.60;99.90;;;;;;5015290;28;20195;-60
2021/09/02 07:12:47;;;;;;;18.60;14.47;;;15.60;99.90;;;;;;5015153;28;20181;-60
2021/09/02 07:15:13;;;;;;;15.83;14.23;;;15.80;99.90;;;;;;5015154;28;20559;-62
2021/09/02 07:17:38;;;;;;;13.20;11.23;;;15.70;99.90;;;;;;5014969;28;20270;-59
2021/09/02 07:20:05;;;;;;;11.47;10.33;;;15.80;99.90;;;;;;5014756;28;20191;-60
2021/09/02 07:22:32;;;;;;;13.57;12.07;;;16.00;99.90;;;;;;5014722;28;20223;-60
2021/09/02 07:24:58;;;;;;;14.00;11.70;;;16.20;99.90;;;;;;5014876;28;20402;-60
2021/09/02 07:27:23;;;;;;;13.20;11.13;;;16.20;99.90;;;;;;5014909;28;20422;-60
2021/09/02 07:29:49;;;;;;;13.17;11.83;;;16.40;99.90;;;;;;5014816;28;20187;-60
2021/09/02 07:32:15;;;;;;;14.00;12.60;;;16.20;99.90;;;;;;5014578;28;20247;-60
2021/09/02 07:34:40;;;;;;;11.60;10.40;;;16.40;99.90;;;;;;5014110;28;20180;-60
2021/09/02 07:37:06;;;;;;;13.33;12.03;;;16.50;99.90;;;;;;5015261;28;20269;-60
2021/09/02 07:39:32;;;;;;;12.70;11.40;;;16.60;99.90;;;;;;5014943;28;20196;-61
2021/09/02 07:41:57;;;;;;;13.00;11.60;;;16.60;99.90;;;;;;5014841;28;20539;-61
2021/09/02 07:44:23;;;;;;;13.33;12.03;;;16.70;99.90;;;;;;5014923;28;20178;-61
2021/09/02 07:46:48;;;;;;;13.20;12.00;;;16.70;99.90;;;;;;5014902;28;20168;-61
2021/09/02 07:49:15;;;;;;;15.60;14.00;;;16.70;99.90;;;;;;5040915;22;20229;-57
2021/09/02 07:51:42;;;;;;;13.60;11.60;;;16.70;99.90;;;;;;5016493;28;20221;-56
2021/09/02 07:54:08;;;;;;;13.73;12.33;;;16.70;99.90;;;;;;5014701;28;20473;-49
2021/09/02 07:56:33;;;;;;;14.60;11.40;;;16.80;99.90;;;;;;5013672;28;20865;-49
2021/09/02 07:59:01;;;;;;;14.17;12.80;;;16.80;99.90;;;;;;5014715;28;20203;-52
2021/09/02 08:01:26;;;;;;;14.37;13.00;;;16.90;99.90;;;;;;5014575;28;20233;-50
2021/09/02 08:03:52;;;;;;;15.90;13.63;;;16.80;99.90;;;;;;5013371;28;20962;-49
2021/09/02 08:06:18;;;;;;;15.00;12.83;;;16.90;99.90;;;;;;5014595;28;20221;-50
2021/09/02 08:08:43;;;;;;;13.00;11.60;;;16.80;99.90;;;;;;5014299;28;20544;-52
2021/09/02 08:11:09;;;;;;;16.93;14.07;;;17.10;99.90;;;;;;5014372;28;20289;-50
2021/09/02 08:13:35;;;;;;;14.07;12.70;;;17.10;99.90;;;;;;5014601;28;20183;-56
2021/09/02 08:16:00;;;;;;;13.93;12.50;;;17.00;99.90;;;;;;5014646;28;20196;-57
2021/09/02 08:18:26;;;;;;;14.73;12.60;;;17.00;99.90;;;;;;5014789;28;20206;-56
2021/09/02 08:20:52;;;;;;;15.20;13.23;;;17.10;99.90;;;;;;5014307;28;20199;-56
2021/09/02 08:23:18;;;;;;;13.27;12.07;;;17.30;99.90;;;;;;5013956;28;20638;-57
2021/09/02 08:25:43;;;;;;;16.60;12.37;;;17.50;99.90;;;;;;5013039;28;20173;-57
2021/09/02 08:28:09;;;;;;;15.40;12.73;;;17.60;99.90;;;;;;5000502;28;20526;-56
2021/09/02 08:30:35;;;;;;;15.30;12.63;;;17.70;99.90;;;;;;4994466;28;20221;-57
2021/09/02 08:33:00;;;;;;;15.90;12.27;;;17.60;99.90;;;;;;4994385;28;20253;-58
2021/09/02 08:35:29;;;;;;;14.67;13.17;;;17.60;99.90;;;;;;4994428;28;20182;-51
2021/09/02 08:38:04;;;;;;;17.00;11.63;;;17.70;99.90;;;;;;4993902;28;20169;-53
2021/09/02 08:40:33;;;;;;;13.50;12.20;;;17.80;99.90;;;;;;4994383;28;20422;-50
2021/09/02 08:42:59;;;;;;;13.73;12.07;;;17.90;99.90;;;;;;4994170;28;20425;-53
2021/09/02 08:45:26;;;;;;;13.67;11.80;;;18.00;99.90;;;;;;4994344;28;20432;-51
2021/09/02 08:47:52;;;;;;;12.60;10.77;;;18.10;99.90;;;;;;4994099;28;20405;-53
2021/09/02 08:50:22;;;;;;;15.97;11.30;;;18.20;99.90;;;;;;4994343;28;20427;-52
2021/09/02 08:52:48;;;;;;;11.40;10.20;;;18.30;99.90;;;;;;4994174;28;20412;-52
2021/09/02 08:55:14;;;;;;;12.43;11.23;;;18.50;99.90;;;;;;4996249;28;20966;-49
2021/09/02 08:57:40;;;;;;;12.10;10.53;;;18.50;99.90;;;;;;5013594;28;20545;-49
2021/09/02 09:00:07;;;;;;;13.03;11.37;;;18.70;99.90;;;;;;5013169;28;20434;-50
2021/09/02 09:02:33;;;;;;;11.23;9.93;;;18.90;99.90;;;;;;4996349;28;20195;-50
2021/09/02 09:05:11;;;;;;;12.43;10.37;;;18.80;99.90;;;;;;5014009;28;20407;-50
2021/09/02 09:07:48;;;;;;;11.07;9.67;;;18.90;99.90;;;;;;5014207;28;20453;-49
2021/09/02 09:10:24;;;;;;;10.87;9.77;;;18.90;99.90;;;;;;5013634;28;20431;-50
2021/09/02 09:13:02;;;;;;;12.90;10.07;;;19.20;99.90;;;;;;5014104;28;20793;-50
2021/09/02 09:15:30;;;;;;;10.43;9.33;;;19.40;99.90;;;;;;5013678;28;20390;-53
2021/09/02 09:18:23;;;;;;;10.60;9.50;;;19.40;99.90;;;;;;5013496;28;20403;-51
2021/09/02 09:21:12;;;;;;;9.27;8.40;;;19.60;99.90;;;;;;5013015;28;20772;-51
2021/09/02 09:23:52;;;;;;;11.50;10.40;;;19.70;99.90;;;;;;5013358;28;20383;-52
2021/09/02 09:26:18;;;;;;;10.40;9.30;;;19.80;99.90;;;;;;5012899;28;20407;-53
2021/09/02 09:28:44;;;;;;;10.73;9.57;;;19.60;99.90;;;;;;5013267;28;20486;-53
2021/09/02 09:31:28;;;;;;;11.63;8.93;;;19.80;99.90;;;;;;5012815;28;20445;-53
2021/09/02 09:33:55;;;;;;;10.53;9.13;;;20.20;99.90;;;;;;5013124;28;20539;-52
2021/09/02 09:36:22;;;;;;;8.47;7.67;;;20.10;99.90;;;;;;5013666;28;20473;-51
2021/09/02 09:39:00;;;;;;;9.53;8.53;;;20.10;99.90;;;;;;5016337;28;20525;-51
2021/09/02 09:41:35;;;;;;;9.47;8.13;;;20.20;99.90;;;;;;5016702;28;20423;-52
2021/09/02 09:44:27;;;;;;;11.50;8.43;;;20.30;99.90;;;;;;5017203;28;20405;-49
2021/09/02 09:47:09;;;;;;;9.67;8.63;;;20.50;99.90;;;;;;5016732;28;20529;-50
2021/09/02 09:49:51;;;;;;;9.67;8.77;;;20.50;99.90;;;;;;5017089;28;20443;-52
2021/09/02 09:52:27;;;;;;;10.00;9.00;;;20.60;99.90;;;;;;5017074;28;20407;-53
2021/09/02 09:55:10;;;;;;;8.70;7.90;;;20.80;99.90;;;;;;5016515;28;20908;-57
2021/09/02 09:57:38;;;;;;;10.50;8.43;;;20.90;99.90;;;;;;5016440;28;20398;-58
2021/09/02 10:00:09;;;;;;;9.57;8.10;;;21.00;99.90;;;;;;5016347;28;20450;-57
2021/09/02 10:02:36;;;;;;;9.57;8.50;;;21.00;99.90;;;;;;5016729;28;20481;-58
2021/09/02 10:05:07;;;;;;;8.10;7.30;;;21.00;99.90;;;;;;5017004;28;20430;-53
2021/09/02 10:07:34;;;;;;;12.43;7.90;;;21.20;99.90;;;;;;5016653;28;20399;-50
2021/09/02 10:10:01;;;;;;;8.47;7.67;;;21.30;99.90;;;;;;5016381;28;20801;-49
2021/09/02 10:12:27;;;;;;;9.30;8.40;;;21.50;99.90;;;;;;5015806;28;20911;-50
2021/09/02 10:14:55;;;;;;;12.30;7.43;;;21.50;99.90;;;;;;5015999;28;20494;-53
2021/09/02 10:17:20;;;;;;;9.20;7.50;;;21.40;99.90;;;;;;5016661;28;20225;-53
2021/09/02 10:19:47;;;;;;;7.90;7.10;;;21.70;99.90;;;;;;5016213;28;20966;-49
2021/09/02 10:22:13;;;;;;;7.73;7.03;;;21.80;99.90;;;;;;5016125;28;20164;-49
2021/09/02 10:24:42;;;;;;;9.83;7.40;;;22.00;99.90;;;;;;5016156;28;20446;-53
2021/09/02 10:27:16;;;;;;;6.77;6.17;;;22.20;99.90;;;;;;5016194;28;20446;-58
2021/09/02 10:29:43;;;;;;;7.57;6.70;;;22.20;99.90;;;;;;5016231;28;20469;-54
2021/09/02 10:32:24;;;;;;;6.43;5.83;;;22.10;99.90;;;;;;5003345;28;20416;-57
2021/09/02 10:34:50;;;;;;;6.77;6.10;;;21.90;99.90;;;;;;4996471;28;20412;-52
2021/09/02 10:37:52;;;;;;;9.13;6.50;;;22.10;99.90;;;;;;4996414;28;20877;-53
2021/09/02 10:40:18;;;;;;;6.30;5.70;;;22.00;99.90;;;;;;4917424;29;20457;-50
2021/09/02 10:42:46;;;;;;;6.17;5.57;;;21.90;99.90;;;;;;4983619;28;20924;-50
2021/09/02 10:45:30;;;;;;;8.00;6.23;;;22.20;99.90;;;;;;5006925;28;20239;-53
2021/09/02 10:48:01;;;;;;;5.93;5.43;;;22.50;99.90;;;;;;5016587;28;20417;-50
2021/09/02 10:50:38;;;;;;;6.63;6.03;;;23.50;99.90;;;;;;5014925;28;20545;-53
2021/09/02 10:53:11;;;;;;;6.27;5.63;;;24.80;98.30;;;;;;5016067;28;20386;-50
2021/09/02 10:55:49;;;;;;;5.97;5.20;;;25.80;97.40;;;;;;5014925;28;20985;-52
2021/09/02 10:58:49;;;;;;;6.50;5.90;;;26.40;96.10;;;;;;5015514;28;20529;-54
2021/09/02 11:01:21;;;;;;;6.50;5.87;;;26.70;94.90;;;;;;5016345;28;20419;-51
2021/09/02 11:03:47;;;;;;;6.10;5.60;;;27.80;92.20;;;;;;5015519;28;20853;-49
2021/09/02 11:06:15;;;;;;;6.73;5.80;;;28.10;93.00;;;;;;5015221;28;20395;-50
2021/09/02 11:08:41;;;;;;;6.77;6.17;;;28.30;91.70;;;;;;5015542;28;20415;-50
2021/09/02 11:11:17;;;;;;;8.27;5.57;;;28.60;91.10;;;;;;5015221;28;20426;-51
2021/09/02 11:13:44;;;;;;;5.13;4.70;;;28.90;88.10;;;;;;5015578;28;20961;-49
2021/09/02 11:16:14;;;;;;;5.10;4.60;;;29.30;88.40;;;;;;5015214;28;20425;-48
2021/09/02 11:18:48;;;;;;;5.77;5.27;;;28.50;83.40;;;;;;5015286;28;20958;-52
2021/09/02 11:21:21;;;;;;;5.30;4.80;;;28.30;87.00;;;;;;5015261;28;20842;-50
2021/09/02 11:23:53;;;;;;;5.00;4.60;;;29.10;80.10;;;;;;5015302;28;20387;-55
2021/09/02 11:26:36;;;;;;;8.70;4.50;;;30.00;78.00;;;;;;5014877;28;20474;-49
2021/09/02 11:29:04;;;;;;;5.83;5.33;;;30.10;78.10;;;;;;5015031;28;20414;-49
2021/09/02 11:31:31;;;;;;;5.17;4.67;;;30.00;75.40;;;;;;5014965;28;20434;-49
2021/09/02 11:33:57;;;;;;;6.00;5.43;;;30.10;76.90;;;;;;5014877;28;20407;-52
2021/09/02 11:36:23;;;;;;;6.37;5.57;;;32.00;74.80;;;;;;5015215;28;20425;-49
2021/09/02 11:38:58;;;;;;;5.23;4.73;;;31.60;72.10;;;;;;5015275;28;20442;-54
2021/09/02 11:41:25;;;;;;;4.70;4.30;;;30.80;71.60;;;;;;5014505;28;20275;-51
2021/09/02 11:43:52;;;;;;;5.40;4.83;;;29.70;75.70;;;;;;5015533;28;20399;-53
2021/09/02 11:46:21;;;;;;;5.70;5.10;;;29.00;74.90;;;;;;5014786;28;20394;-53
2021/09/02 11:48:49;;;;;;;5.90;5.40;;;29.00;75.40;;;;;;5014663;28;20395;-53
2021/09/02 11:51:23;;;;;;;4.73;4.33;;;30.10;73.10;;;;;;5013740;28;20861;-51
2021/09/02 11:54:02;;;;;;;4.67;4.27;;;30.00;73.20;;;;;;5016041;28;20482;-52
2021/09/02 11:56:28;;;;;;;4.90;4.40;;;29.30;72.30;;;;;;5016288;28;20525;-51
2021/09/02 11:59:02;;;;;;;6.00;5.40;;;30.20;72.50;;;;;;5016440;28;20446;-51
2021/09/02 12:01:28;;;;;;;4.37;4.07;;;29.90;71.00;;;;;;5015992;28;20423;-56
2021/09/02 12:03:54;;;;;;;4.07;3.67;;;29.40;71.50;;;;;;5015580;28;20410;-57
2021/09/02 12:06:26;;;;;;;5.27;4.87;;;30.30;71.00;;;;;;5014355;28;20188;-58
2021/09/02 12:08:54;;;;;;;5.07;4.57;;;29.80;70.80;;;;;;5014842;28;20399;-55
2021/09/02 12:11:20;;;;;;;5.53;5.03;;;28.30;74.20;;;;;;5013791;28;20418;-58
2021/09/02 12:13:46;;;;;;;5.40;4.90;;;29.20;72.90;;;;;;5014564;28;20486;-50
2021/09/02 12:16:17;;;;;;;4.37;3.97;;;29.30;71.50;;;;;;5013948;28;20399;-52
2021/09/02 12:18:45;;;;;;;5.83;4.70;;;30.30;69.90;;;;;;5014186;28;20439;-50
2021/09/02 12:21:21;;;;;;;5.00;4.60;;;29.40;70.00;;;;;;5014102;28;20438;-57
2021/09/02 12:23:58;;;;;;;5.90;4.20;;;31.10;71.70;;;;;;4999660;28;20450;-52
2021/09/02 12:26:41;;;;;;;4.80;4.40;;;32.00;66.10;;;;;;5005340;28;20418;-58
2021/09/02 12:29:11;;;;;;;4.77;4.37;;;31.70;66.30;;;;;;5014117;28;20399;-58
2021/09/02 12:31:37;;;;;;;5.47;4.97;;;30.80;67.30;;;;;;5013700;28;20445;-57
2021/09/02 12:34:22;;;;;;;5.07;4.57;;;31.70;64.50;;;;;;5013658;28;20802;-53
2021/09/02 12:37:19;;;;;;;5.27;4.40;;;31.50;64.40;;;;;;5014053;28;20255;-53
2021/09/02 12:39:54;;;;;;;5.10;4.20;;;30.80;67.50;;;;;;5001872;28;20577;-52
2021/09/02 12:42:22;;;;;;;3.97;3.67;;;31.80;64.80;;;;;;5013534;28;20748;-50
2021/09/02 12:45:27;;;;;;;4.97;4.57;;;32.40;65.70;;;;;;5013875;28;20481;-51